Time;durP1;ratioP1;P1;durP2;ratioP2;P2;SDS_P1;SDS_P2;PMS_P1;PMS_P2;Temp;Humidity;BMP_temperature;BMP_pressure;BME280_temperature;BME280_humidity;BME280_pressure;Samples;Min_cycle;Max_cycle;Signal;HPM_P1;HPM_P2
2023/03/24 00:01:09;;;;;;;11.00;6.00;;;;;;;9.12;100.00;99562.84;7393662;19;20403;-43
2023/03/24 00:03:39;;;;;;;15.60;6.20;;;;;;;9.09;100.00;99563.63;7395799;19;20391;-44
2023/03/24 00:06:12;;;;;;;16.10;6.83;;;;;;;9.10;100.00;99561.91;7390552;19;20411;-42
2023/03/24 00:08:46;;;;;;;13.80;6.57;;;;;;;9.08;100.00;99563.59;7391801;19;20864;-42
2023/03/24 00:11:19;;;;;;;10.80;6.40;;;;;;;9.07;100.00;99562.69;7391332;19;20419;-42
2023/03/24 00:13:49;;;;;;;13.00;6.07;;;;;;;9.10;100.00;99565.38;7394623;19;20380;-41
2023/03/24 00:16:20;;;;;;;13.83;5.43;;;;;;;9.08;100.00;99558.44;7391043;19;20415;-41
2023/03/24 00:18:51;;;;;;;11.63;5.53;;;;;;;9.07;100.00;99556.69;7392818;19;20456;-40
2023/03/24 00:21:24;;;;;;;12.20;5.47;;;;;;;9.07;100.00;99548.97;7391004;19;20423;-40
2023/03/24 00:23:57;;;;;;;12.90;7.07;;;;;;;9.05;100.00;99541.22;7395063;19;20768;-42
2023/03/24 00:26:29;;;;;;;8.70;5.13;;;;;;;9.00;100.00;99533.38;7391057;19;20954;-40
2023/03/24 00:29:00;;;;;;;11.97;5.00;;;;;;;8.99;100.00;99523.91;7392276;19;20435;-41
2023/03/24 00:31:30;;;;;;;10.83;5.63;;;;;;;8.99;100.00;99511.06;7391583;19;20439;-41
2023/03/24 00:34:01;;;;;;;9.80;5.93;;;;;;;8.95;100.00;99503.19;7392470;19;20736;-43
2023/03/24 00:36:31;;;;;;;14.53;6.17;;;;;;;8.97;100.00;99494.69;7390752;19;20520;-42
2023/03/24 00:39:01;;;;;;;10.60;4.20;;;;;;;8.98;100.00;99480.13;7391823;19;20451;-40
2023/03/24 00:41:33;;;;;;;9.53;5.40;;;;;;;8.95;100.00;99486.06;7390112;19;20455;-45
2023/03/24 00:44:08;;;;;;;9.20;4.70;;;;;;;8.94;100.00;99471.44;7397030;19;20399;-41
2023/03/24 00:46:38;;;;;;;8.20;4.60;;;;;;;8.96;100.00;99461.22;7389575;19;20415;-42
2023/03/24 00:49:10;;;;;;;8.40;4.37;;;;;;;9.00;100.00;99452.72;7391712;19;20957;-41
2023/03/24 00:51:42;;;;;;;8.53;4.50;;;;;;;8.97;100.00;99453.50;7390638;19;20439;-41
2023/03/24 00:54:13;;;;;;;10.97;4.70;;;;;;;8.95;100.00;99444.91;7393443;19;20376;-41
2023/03/24 00:56:48;;;;;;;14.10;4.50;;;;;;;8.94;100.00;99440.59;7389887;19;20443;-40
2023/03/24 00:59:20;;;;;;;11.80;4.10;;;;;;;8.97;100.00;99435.50;7392284;19;20849;-40
2023/03/24 01:01:49;;;;;;;10.07;3.90;;;;;;;8.95;100.00;99442.31;7390819;19;20431;-41
2023/03/24 01:04:19;;;;;;;11.83;4.30;;;;;;;8.93;100.00;99431.13;7391168;19;20391;-39
2023/03/24 01:06:51;;;;;;;9.50;4.40;;;;;;;8.91;100.00;99419.91;7389803;19;20439;-40
2023/03/24 01:09:21;;;;;;;6.10;3.47;;;;;;;8.90;100.00;99410.44;7390347;19;20428;-41
2023/03/24 01:11:54;;;;;;;9.07;3.73;;;;;;;8.88;100.00;99400.13;7390129;19;21001;-41
2023/03/24 01:14:24;;;;;;;8.20;4.10;;;;;;;8.82;100.00;99399.94;7392150;19;20412;-40
2023/03/24 01:16:54;;;;;;;6.90;3.57;;;;;;;8.81;100.00;99384.50;7389232;19;20419;-40
2023/03/24 01:19:24;;;;;;;9.03;4.23;;;;;;;8.83;100.00;99393.13;7390775;19;20427;-40
2023/03/24 01:21:54;;;;;;;6.27;3.20;;;;;;;8.77;100.00;99379.25;7390148;19;20446;-42
2023/03/24 01:24:25;;;;;;;6.10;3.93;;;;;;;8.76;100.00;99366.34;7393064;19;20467;-39
2023/03/24 01:26:57;;;;;;;8.80;4.00;;;;;;;8.75;100.00;99368.06;7388528;19;20982;-40
2023/03/24 01:29:27;;;;;;;8.40;4.20;;;;;;;8.76;100.00;99359.50;7390969;19;21100;-42
2023/03/24 01:31:57;;;;;;;15.60;4.00;;;;;;;8.77;100.00;99353.53;7389046;19;20415;-40
2023/03/24 01:34:27;;;;;;;6.67;4.00;;;;;;;8.76;100.00;99351.81;7390672;19;20388;-40
2023/03/24 01:36:56;;;;;;;9.80;3.53;;;;;;;8.78;100.00;99341.56;7389113;19;20407;-40
2023/03/24 01:39:26;;;;;;;8.50;4.30;;;;;;;8.71;100.00;99344.81;7394925;19;20431;-40
2023/03/24 01:41:59;;;;;;;9.50;4.17;;;;;;;8.70;100.00;99341.34;7389411;19;20765;-43
2023/03/24 01:44:34;;;;;;;8.13;4.00;;;;;;;8.70;100.00;99343.91;7391806;19;20730;-41
2023/03/24 01:47:05;;;;;;;11.43;4.40;;;;;;;8.63;100.00;99334.31;7388517;19;20411;-41
2023/03/24 01:49:38;;;;;;;12.10;4.40;;;;;;;8.62;100.00;99335.13;7388680;19;20443;-40
2023/03/24 01:52:11;;;;;;;12.87;3.80;;;;;;;8.60;100.00;99336.78;7391630;19;20392;-40
2023/03/24 01:54:44;;;;;;;7.87;4.00;;;;;;;8.61;100.00;99328.25;7389353;19;20403;-42
2023/03/24 01:57:20;;;;;;;7.63;4.00;;;;;;;8.62;100.00;99323.13;7390901;19;20420;-41
2023/03/24 01:59:51;;;;;;;15.57;3.27;;;;;;;8.59;100.00;99322.19;7385946;19;20383;-47
2023/03/24 02:02:21;;;;;;;6.90;3.87;;;;;;;8.62;100.00;99325.72;7391542;19;20398;-44
2023/03/24 02:04:53;;;;;;;8.93;4.20;;;;;;;8.63;100.00;99316.31;7387280;19;20399;-50
2023/03/24 02:07:31;;;;;;;10.60;4.37;;;;;;;8.61;100.00;99312.84;7393919;19;20403;-43
2023/03/24 02:10:01;;;;;;;8.77;3.57;;;;;;;8.57;100.00;99309.28;7387302;19;20403;-45
2023/03/24 02:12:35;;;;;;;6.90;3.50;;;;;;;8.56;100.00;99311.84;7389286;19;20380;-42
2023/03/24 02:15:07;;;;;;;11.20;4.60;;;;;;;8.58;100.00;99297.31;7386911;19;20965;-42
2023/03/24 02:17:56;;;;;;;14.33;4.70;;;;;;;8.58;100.00;99302.47;7390495;19;20428;-44
2023/03/24 02:20:34;;;;;;;8.23;4.03;;;;;;;8.57;100.00;99303.28;7390050;19;20439;-41
2023/03/24 02:23:27;;;;;;;9.30;4.73;;;;;;;8.60;100.00;99303.34;7390885;19;20405;-44
2023/03/24 02:26:28;;;;;;;7.63;4.43;;;;;;;8.60;100.00;99301.66;7388485;19;20423;-46
2023/03/24 02:29:11;;;;;;;8.13;4.10;;;;;;;8.55;100.00;99292.09;7389001;19;20982;-40
2023/03/24 02:32:05;;;;;;;10.60;4.33;;;;;;;8.57;100.00;99299.00;7387226;19;20425;-43
2023/03/24 02:35:22;;;;;;;10.77;4.70;;;;;;;8.57;100.00;99295.59;7387058;19;20511;-40
2023/03/24 02:38:21;;;;;;;7.83;4.27;;;;;;;8.59;100.00;99293.91;7387174;19;20435;-40
2023/03/24 02:40:57;;;;;;;6.97;4.47;;;;;;;8.55;100.00;99287.81;7394138;19;20415;-41
2023/03/24 02:43:35;;;;;;;10.20;4.77;;;;;;;8.53;100.00;99293.75;7395585;19;20407;-42
2023/03/24 02:46:13;;;;;;;5.67;4.10;;;;;;;8.53;100.00;99291.19;7395469;19;20430;-40
2023/03/24 02:48:57;;;;;;;8.73;4.67;;;;;;;8.53;100.00;99278.31;7396255;19;20435;-41
2023/03/24 02:51:29;;;;;;;7.83;4.20;;;;;;;8.54;100.00;99287.78;7394159;19;20490;-40
2023/03/24 02:54:05;;;;;;;9.87;5.00;;;;;;;8.55;100.00;99286.97;7398212;19;20408;-42
2023/03/24 02:56:40;;;;;;;12.73;4.77;;;;;;;8.56;100.00;99284.41;7393720;19;20414;-40
2023/03/24 02:59:13;;;;;;;8.33;4.30;;;;;;;8.58;100.00;99277.63;7395774;19;20781;-43
2023/03/24 03:01:52;;;;;;;7.20;4.30;;;;;;;8.55;100.00;99281.81;7394601;19;20761;-40
2023/03/24 03:04:27;;;;;;;9.70;4.87;;;;;;;8.55;100.00;99276.69;7397637;19;20383;-42
2023/03/24 03:07:00;;;;;;;8.50;4.53;;;;;;;8.50;100.00;99269.69;7393829;19;20426;-41
2023/03/24 03:09:30;;;;;;;10.53;5.43;;;;;;;8.58;100.00;99269.03;7394256;19;20446;-40
2023/03/24 03:12:03;;;;;;;10.30;4.50;;;;;;;8.51;100.00;99260.25;7396714;19;20423;-42
2023/03/24 03:14:36;;;;;;;10.20;4.93;;;;;;;8.50;100.00;99256.81;7394624;19;20419;-42
2023/03/24 03:17:09;;;;;;;9.97;5.10;;;;;;;8.50;100.00;99256.81;7396015;19;20414;-41
2023/03/24 03:19:42;;;;;;;11.87;5.57;;;;;;;8.49;100.00;99242.22;7391888;19;20435;-40
2023/03/24 03:22:17;;;;;;;12.70;5.53;;;;;;;8.43;100.00;99247.22;7396442;19;20387;-41
2023/03/24 03:24:51;;;;;;;10.63;5.10;;;;;;;8.43;100.00;99236.94;7395523;19;20383;-44
2023/03/24 03:27:27;;;;;;;10.33;4.93;;;;;;;8.46;100.00;99226.72;7396231;19;20399;-41
2023/03/24 03:30:01;;;;;;;10.40;5.37;;;;;;;8.45;100.00;99217.28;7391602;19;20438;-41
2023/03/24 03:32:34;;;;;;;9.23;4.57;;;;;;;8.45;100.00;99214.69;7396885;19;20381;-41
2023/03/24 03:35:08;;;;;;;10.67;4.63;;;;;;;8.47;100.00;99207.88;7392264;19;20817;-40
2023/03/24 03:37:44;;;;;;;7.30;4.60;;;;;;;8.48;100.00;99203.63;7393005;19;20383;-41
2023/03/24 03:40:19;;;;;;;9.47;4.50;;;;;;;8.49;100.00;99193.41;7391961;19;20430;-40
2023/03/24 03:42:51;;;;;;;16.33;5.37;;;;;;;8.56;100.00;99180.72;7393836;19;20384;-42
2023/03/24 03:45:21;;;;;;;9.20;5.23;;;;;;;8.53;100.00;99176.38;7392079;19;20406;-42
2023/03/24 03:47:52;;;;;;;7.03;4.63;;;;;;;8.51;100.00;99183.13;7393568;19;20786;-41
2023/03/24 03:50:22;;;;;;;8.60;4.80;;;;;;;8.54;100.00;99187.50;7390455;19;20491;-41
2023/03/24 03:52:52;;;;;;;10.00;4.90;;;;;;;8.57;100.00;99177.31;7393469;19;20388;-40
2023/03/24 03:55:22;;;;;;;7.80;5.00;;;;;;;8.56;100.00;99173.88;7392696;19;20439;-41
2023/03/24 03:57:54;;;;;;;8.60;4.87;;;;;;;8.57;100.00;99174.75;7393107;19;21030;-41
2023/03/24 04:00:25;;;;;;;11.17;4.70;;;;;;;8.60;100.00;99177.38;7392051;19;20434;-42
2023/03/24 04:03:21;;;;;;;17.43;7.33;;;;;;;8.71;100.00;99170.81;7393855;19;20412;-41
2023/03/24 04:05:56;;;;;;;19.70;7.50;;;;;;;8.74;100.00;99160.59;7391358;19;20821;-42
2023/03/24 04:08:30;;;;;;;9.90;5.60;;;;;;;8.81;100.00;99158.19;7395956;19;20427;-40
2023/03/24 04:11:25;;;;;;;8.80;5.67;;;;;;;8.89;100.00;99148.94;7394507;19;21085;-41
2023/03/24 04:14:08;;;;;;;10.77;4.90;;;;;;;8.97;100.00;99144.81;7393094;19;20386;-39
2023/03/24 04:16:50;;;;;;;7.77;4.40;;;;;;;9.01;100.00;99150.91;7394810;19;20816;-40
2023/03/24 04:19:29;;;;;;;7.27;4.60;;;;;;;9.12;100.00;99153.72;7395978;19;20475;-40
2023/03/24 04:22:08;;;;;;;6.97;4.83;;;;;;;9.10;100.00;99156.25;7395549;19;20438;-40
2023/03/24 04:24:44;;;;;;;7.33;3.37;;;;;;;9.21;100.00;99145.31;7390295;19;20749;-41
2023/03/24 04:27:20;;;;;;;9.20;5.17;;;;;;;9.28;100.00;99142.91;7393075;19;20399;-40
2023/03/24 04:29:59;;;;;;;8.13;3.50;;;;;;;9.35;100.00;99146.50;7394772;19;20990;-42
2023/03/24 04:32:31;;;;;;;10.13;4.87;;;;;;;9.38;100.00;99148.28;7396697;19;20447;-43
2023/03/24 04:35:04;;;;;;;8.60;5.47;;;;;;;9.42;100.00;99147.47;7394077;19;20415;-42
2023/03/24 04:37:36;;;;;;;9.50;5.60;;;;;;;9.48;100.00;99165.63;7393717;19;20922;-40
2023/03/24 04:40:09;;;;;;;10.30;4.77;;;;;;;9.51;100.00;99164.81;7394186;19;20431;-44
2023/03/24 04:42:41;;;;;;;8.90;4.87;;;;;;;9.55;100.00;99177.78;7396655;19;20404;-44
2023/03/24 04:45:14;;;;;;;8.77;5.00;;;;;;;9.53;100.00;99179.47;7392315;19;20958;-43
2023/03/24 04:47:46;;;;;;;11.80;6.17;;;;;;;9.57;100.00;99178.69;7393125;19;21342;-46
2023/03/24 04:50:29;;;;;;;5.50;3.47;;;;;;;9.55;100.00;99179.50;7393076;19;20419;-41
2023/03/24 04:52:59;;;;;;;8.70;4.90;;;;;;;9.57;100.00;99180.41;7395040;19;21295;-41
2023/03/24 04:55:49;;;;;;;7.10;5.00;;;;;;;9.52;100.00;99185.47;7393340;19;20443;-46
2023/03/24 04:58:20;;;;;;;5.43;3.57;;;;;;;9.54;100.00;99183.78;7396435;19;20443;-44
2023/03/24 05:00:54;;;;;;;11.17;5.47;;;;;;;9.59;100.00;99183.91;7392875;19;20978;-41
2023/03/24 05:03:24;;;;;;;7.37;5.00;;;;;;;9.57;100.00;99186.44;7395656;19;20409;-41
2023/03/24 05:05:54;;;;;;;8.37;5.00;;;;;;;9.54;100.00;99176.03;7392004;19;20510;-44
2023/03/24 05:08:24;;;;;;;7.50;4.10;;;;;;;9.52;100.00;99170.00;7394665;19;20443;-44
2023/03/24 05:10:53;;;;;;;7.27;4.90;;;;;;;9.53;100.00;99169.16;7390775;19;20464;-41
2023/03/24 05:13:23;;;;;;;9.63;6.00;;;;;;;9.52;100.00;99157.13;7395667;19;20439;-42
2023/03/24 05:15:57;;;;;;;13.77;5.67;;;;;;;9.54;100.00;99152.88;7392035;19;20444;-43
2023/03/24 05:18:26;;;;;;;13.27;7.63;;;;;;;9.61;100.00;99145.28;7394311;19;20435;-44
2023/03/24 05:20:56;;;;;;;7.07;4.43;;;;;;;9.59;100.00;99138.41;7391643;19;20471;-44
2023/03/24 05:23:25;;;;;;;6.23;4.93;;;;;;;9.62;100.00;99132.44;7395354;19;20439;-41
2023/03/24 05:25:55;;;;;;;8.03;4.87;;;;;;;9.60;100.00;99128.97;7391173;19;20671;-45
2023/03/24 05:28:25;;;;;;;5.00;3.07;;;;;;;9.64;100.00;99129.91;7394749;19;20804;-46
2023/03/24 05:30:57;;;;;;;14.30;5.07;;;;;;;9.67;100.00;99125.69;7390727;19;20443;-41
2023/03/24 05:33:26;;;;;;;8.50;5.20;;;;;;;9.72;100.00;99118.91;7394689;19;20432;-44
2023/03/24 05:35:56;;;;;;;7.40;5.00;;;;;;;9.73;100.00;99120.66;7391384;19;20447;-43
2023/03/24 05:38:26;;;;;;;8.20;4.27;;;;;;;9.71;100.00;99129.19;7394063;19;20451;-43
2023/03/24 05:40:58;;;;;;;8.10;4.77;;;;;;;9.73;100.00;99109.47;7391093;19;20453;-40
2023/03/24 05:43:28;;;;;;;4.33;3.43;;;;;;;9.76;100.00;99125.00;7394931;19;20440;-41
2023/03/24 05:46:01;;;;;;;5.73;4.50;;;;;;;9.75;100.00;99122.38;7390781;19;20447;-41
2023/03/24 05:48:31;;;;;;;13.33;2.90;;;;;;;9.75;100.00;99112.06;7394451;19;20519;-40
2023/03/24 05:51:00;;;;;;;5.00;3.33;;;;;;;9.75;100.00;99120.69;7390534;19;20455;-42
2023/03/24 05:53:30;;;;;;;6.93;4.67;;;;;;;9.77;100.00;99110.38;7394646;19;20495;-41
2023/03/24 05:56:00;;;;;;;7.27;3.83;;;;;;;9.76;100.00;99106.97;7390657;19;20467;-42
2023/03/24 05:58:33;;;;;;;7.50;4.63;;;;;;;9.77;100.00;99108.69;7394117;19;20435;-43
2023/03/24 06:01:11;;;;;;;10.70;5.37;;;;;;;9.81;100.00;99100.19;7391716;19;20446;-42
2023/03/24 06:03:40;;;;;;;7.77;4.53;;;;;;;9.83;100.00;99093.34;7393451;19;20411;-42
2023/03/24 06:06:13;;;;;;;6.47;4.30;;;;;;;9.85;100.00;99104.53;7390486;19;20447;-44
2023/03/24 06:08:43;;;;;;;7.37;4.87;;;;;;;9.83;100.00;99095.03;7391668;19;20799;-42
2023/03/24 06:11:14;;;;;;;7.60;4.93;;;;;;;9.84;100.00;99092.50;7390698;19;20440;-41
2023/03/24 06:13:43;;;;;;;4.47;3.27;;;;;;;9.84;100.00;99100.22;7393039;19;20420;-40
2023/03/24 06:16:17;;;;;;;6.50;3.93;;;;;;;9.89;100.00;99084.84;7390738;19;20439;-40
2023/03/24 06:18:51;;;;;;;9.27;5.10;;;;;;;9.90;100.00;99088.31;7393241;19;20453;-41
2023/03/24 06:21:29;;;;;;;3.83;2.70;;;;;;;9.88;100.00;99084.84;7391394;19;20982;-43
2023/03/24 06:24:03;;;;;;;4.53;3.10;;;;;;;9.86;100.00;99090.81;7394526;19;20931;-43
2023/03/24 06:26:33;;;;;;;7.70;5.43;;;;;;;9.89;100.00;99090.00;7390742;19;20443;-41
2023/03/24 06:29:02;;;;;;;8.10;4.70;;;;;;;9.88;100.00;99100.31;7393066;19;20443;-40
2023/03/24 06:31:36;;;;;;;5.10;3.70;;;;;;;9.88;100.00;99102.88;7389698;19;20447;-44
2023/03/24 06:34:06;;;;;;;6.17;3.83;;;;;;;9.89;100.00;99096.88;7394645;19;20416;-41
2023/03/24 06:36:36;;;;;;;5.70;4.00;;;;;;;9.93;100.00;99093.50;7390476;19;20439;-41
2023/03/24 06:39:06;;;;;;;6.90;3.60;;;;;;;9.95;100.00;99097.00;7392035;19;20483;-42
2023/03/24 06:41:36;;;;;;;6.33;3.00;;;;;;;9.97;100.00;99087.56;7390670;19;20447;-42
2023/03/24 06:44:05;;;;;;;6.13;2.90;;;;;;;9.96;100.00;99089.25;7394186;19;20419;-40
2023/03/24 06:46:37;;;;;;;7.70;4.93;;;;;;;10.00;100.00;99087.59;7390274;19;20808;-40
2023/03/24 06:49:07;;;;;;;3.63;2.50;;;;;;;10.02;100.00;99095.38;7392587;19;20458;-42
2023/03/24 06:51:37;;;;;;;3.80;2.40;;;;;;;10.05;100.00;99101.44;7390024;19;20830;-40
2023/03/24 06:54:06;;;;;;;4.40;4.00;;;;;;;10.08;100.00;99096.34;7392031;19;20424;-45
2023/03/24 06:56:36;;;;;;;4.97;2.83;;;;;;;10.08;100.00;99106.66;7390051;19;20918;-41
2023/03/24 06:59:05;;;;;;;2.93;2.63;;;;;;;10.12;100.00;99113.59;7392831;19;21015;-40
2023/03/24 07:01:38;;;;;;;3.33;2.40;;;;;;;10.15;100.00;99122.25;7390130;19;20439;-42
2023/03/24 07:04:08;;;;;;;3.03;2.30;;;;;;;10.09;100.00;99131.59;7393581;19;20771;-43
2023/03/24 07:06:38;;;;;;;3.00;2.03;;;;;;;10.07;100.00;99146.16;7388372;19;20982;-44
2023/03/24 07:09:28;;;;;;;2.20;1.70;;;;;;;10.02;100.00;99204.47;7392584;19;20426;-41
2023/03/24 07:11:57;;;;;;;3.70;2.37;;;;;;;10.01;100.00;99184.69;7389470;19;20455;-40
2023/03/24 07:14:27;;;;;;;1.80;1.40;;;;;;;10.00;100.00;99191.56;7394347;19;20407;-44
2023/03/24 07:17:00;;;;;;;2.90;1.13;;;;;;;9.93;100.00;99193.97;7388503;19;20459;-42
2023/03/24 07:19:31;;;;;;;2.70;1.90;;;;;;;9.92;100.00;99220.59;7392232;19;20471;-47
2023/03/24 07:22:00;;;;;;;2.67;1.53;;;;;;;9.94;100.00;99250.69;7392886;19;20463;-44
2023/03/24 07:24:30;;;;;;;3.33;1.90;;;;;;;9.92;100.00;99279.84;7394212;19;20408;-47
2023/03/24 07:27:00;;;;;;;4.70;2.00;;;;;;;9.86;100.00;99306.34;7395330;19;20559;-44
2023/03/24 07:29:30;;;;;;;3.10;2.20;;;;;;;9.90;100.00;99333.03;7398324;19;20442;-41
2023/03/24 07:32:02;;;;;;;3.90;2.07;;;;;;;9.88;100.00;99334.72;7398306;19;21001;-41
2023/03/24 07:34:33;;;;;;;3.77;2.27;;;;;;;9.90;100.00;99343.34;7401611;19;20422;-45
2023/03/24 07:37:02;;;;;;;3.57;2.13;;;;;;;9.86;100.00;99365.59;7398303;19;20468;-47
2023/03/24 07:39:32;;;;;;;3.13;1.87;;;;;;;9.84;100.00;99381.00;7397198;19;20967;-41
2023/03/24 07:42:02;;;;;;;4.23;2.00;;;;;;;9.91;100.00;99391.47;7398879;19;20451;-40
2023/03/24 07:44:31;;;;;;;5.20;2.60;;;;;;;9.92;100.00;99388.03;7397225;19;20435;-41
2023/03/24 07:47:04;;;;;;;2.83;1.80;;;;;;;9.88;100.00;99418.03;7397470;19;20841;-42
2023/03/24 07:49:33;;;;;;;2.73;1.80;;;;;;;9.81;100.00;99431.59;7397885;19;20443;-42
2023/03/24 07:52:05;;;;;;;2.67;1.10;;;;;;;9.73;100.00;99433.97;7397224;19;21113;-46
2023/03/24 07:54:35;;;;;;;3.83;1.63;;;;;;;9.68;100.00;99451.03;7394372;19;20408;-41
2023/03/24 07:57:05;;;;;;;7.40;1.37;;;;;;;9.64;100.00;99454.38;7397357;19;20400;-41
2023/03/24 07:59:37;;;;;;;4.07;1.43;;;;;;;9.70;100.00;99469.97;7389743;19;20461;-41
2023/03/24 08:02:13;;;;;;;8.47;2.13;;;;;;;9.68;100.00;99474.19;7392764;19;20388;-42
2023/03/24 08:04:43;;;;;;;2.70;0.90;;;;;;;9.76;100.00;99489.84;7390991;19;20395;-42
2023/03/24 08:07:13;;;;;;;8.03;1.20;;;;;;;9.71;100.00;99482.03;7394062;19;20388;-42
2023/03/24 08:09:43;;;;;;;7.33;1.50;;;;;;;9.77;100.00;99481.28;7390587;19;20443;-40
2023/03/24 08:12:12;;;;;;;10.67;2.00;;;;;;;9.72;100.00;99496.63;7392354;19;20416;-42
2023/03/24 08:14:49;;;;;;;6.90;1.30;;;;;;;9.80;100.00;99523.44;7391325;19;20398;-41
2023/03/24 08:17:21;;;;;;;10.63;2.40;;;;;;;9.82;100.00;99520.91;7392004;19;20391;-41
2023/03/24 08:19:50;;;;;;;6.30;1.30;;;;;;;9.89;100.00;99537.41;7390619;19;20455;-43
2023/03/24 08:22:28;;;;;;;8.30;2.23;;;;;;;9.83;100.00;99538.13;7394780;19;20455;-40
2023/03/24 08:24:58;;;;;;;6.80;1.40;;;;;;;9.95;100.00;99542.72;7391822;19;20407;-40
2023/03/24 08:27:27;;;;;;;8.50;1.83;;;;;;;9.98;100.00;99559.13;7394041;19;20751;-43
2023/03/24 08:29:57;;;;;;;5.53;1.40;;;;;;;10.10;100.00;99566.28;7391612;19;20435;-41
2023/03/24 08:32:29;;;;;;;3.23;1.50;;;;;;;10.12;100.00;99562.03;7395622;19;20420;-40
2023/03/24 08:34:59;;;;;;;2.83;1.23;;;;;;;10.14;100.00;99541.44;7391316;19;20931;-40
2023/03/24 08:37:29;;;;;;;3.63;1.13;;;;;;;10.26;100.00;99571.81;7390596;19;20986;-42
2023/03/24 08:40:04;;;;;;;3.77;0.70;;;;;;;10.29;100.00;99571.88;7389741;19;20440;-52
2023/03/24 08:42:34;;;;;;;4.13;1.27;;;;;;;10.29;100.00;99587.34;7394260;19;20419;-40
2023/03/24 08:45:03;;;;;;;8.50;0.90;;;;;;;10.11;100.00;99606.69;7395418;19;20761;-41
2023/03/24 08:47:36;;;;;;;18.40;3.67;;;;;;;10.04;100.00;99603.94;7391616;19;20380;-44
2023/03/24 08:50:06;;;;;;;15.23;3.30;;;;;;;9.97;100.00;99618.34;7392435;19;20415;-40
2023/03/24 08:52:36;;;;;;;22.30;5.13;;;;;;;9.96;100.00;99624.34;7392248;19;20415;-41
2023/03/24 08:55:08;;;;;;;15.43;2.60;;;;;;;9.99;100.00;99621.81;7389905;19;20418;-40
2023/03/24 08:57:38;;;;;;;7.63;1.77;;;;;;;10.00;100.00;99610.69;7391624;19;20388;-42
2023/03/24 09:00:13;;;;;;;12.77;3.83;;;;;;;10.08;100.00;99622.06;7390515;19;20956;-40
2023/03/24 09:02:46;;;;;;;7.57;1.50;;;;;;;10.11;100.00;99611.81;7392576;19;20395;-43
2023/03/24 09:05:17;;;;;;;7.70;1.63;;;;;;;10.03;100.00;99620.19;7391686;19;20970;-41
2023/03/24 09:07:59;;;;;;;5.53;0.90;;;;;;;9.95;100.00;99620.88;7390780;19;20444;-41
2023/03/24 09:10:29;;;;;;;13.23;1.50;;;;;;;10.05;100.00;99619.41;7390066;19;20427;-42
2023/03/24 09:12:58;;;;;;;8.03;2.13;;;;;;;10.09;100.00;99626.41;7392767;19;20406;-43
2023/03/24 09:15:28;;;;;;;10.33;2.53;;;;;;;10.16;100.00;99623.97;7389730;19;20965;-44
2023/03/24 09:18:00;;;;;;;6.70;1.60;;;;;;;10.26;100.00;99638.84;7392531;19;20434;-43
2023/03/24 09:20:30;;;;;;;7.50;1.20;;;;;;;10.20;100.00;99679.94;7389869;19;20402;-41
2023/03/24 09:23:00;;;;;;;5.43;1.00;;;;;;;10.25;100.00;99671.47;7392261;19;20934;-40
2023/03/24 09:25:29;;;;;;;5.70;0.90;;;;;;;10.06;100.00;99670.09;7389065;19;20439;-42
2023/03/24 09:27:59;;;;;;;7.43;1.63;;;;;;;10.02;100.00;99683.78;7392350;19;20399;-42
2023/03/24 09:30:29;;;;;;;8.20;1.53;;;;;;;9.97;100.00;99678.50;7391055;19;20530;-48
2023/03/24 09:33:05;;;;;;;9.50;1.77;;;;;;;9.96;100.00;99688.75;7391036;19;20832;-48
2023/03/24 09:35:35;;;;;;;17.17;2.43;;;;;;;9.96;100.00;99668.13;7390411;19;20446;-45
2023/03/24 09:38:05;;;;;;;5.30;1.87;;;;;;;9.98;100.00;99687.09;7391896;19;20432;-41
2023/03/24 09:40:38;;;;;;;5.73;1.60;;;;;;;9.99;100.00;99689.72;7388749;19;20446;-43
2023/03/24 09:43:10;;;;;;;15.17;1.80;;;;;;;9.96;100.00;99681.03;7392557;19;20424;-46
2023/03/24 09:45:46;;;;;;;4.40;1.27;;;;;;;9.93;100.00;99696.38;7389395;19;20415;-45
2023/03/24 09:48:22;;;;;;;6.60;1.40;;;;;;;9.95;100.00;99702.47;7382422;19;20438;-45
2023/03/24 09:50:55;;;;;;;8.03;1.73;;;;;;;10.08;100.00;99685.63;7391423;19;20467;-44
2023/03/24 09:53:30;;;;;;;13.50;2.90;;;;;;;10.22;100.00;99673.09;7394067;19;20396;-43
2023/03/24 09:56:03;;;;;;;2.57;0.80;;;;;;;10.15;100.00;99704.72;7390678;19;20449;-42
2023/03/24 09:58:34;;;;;;;9.53;1.67;;;;;;;10.18;100.00;99699.63;7394186;19;20436;-43
2023/03/24 10:01:04;;;;;;;8.70;1.40;;;;;;;10.10;100.00;99710.59;7390049;19;20434;-41
2023/03/24 10:03:36;;;;;;;5.73;1.40;;;;;;;10.14;100.00;99703.81;7394702;19;20419;-39
2023/03/24 10:06:10;;;;;;;5.10;0.90;;;;;;;10.09;100.00;99721.75;7388887;19;20455;-41
2023/03/24 10:08:44;;;;;;;4.57;0.83;;;;;;;10.06;100.00;99726.81;7391974;19;20988;-40
2023/03/24 10:11:21;;;;;;;5.03;0.97;;;;;;;10.09;100.00;99716.59;7392831;19;20438;-41
2023/03/24 10:13:59;;;;;;;12.70;2.07;;;;;;;10.13;100.00;99738.16;7392645;19;20982;-40
2023/03/24 10:16:37;;;;;;;11.00;1.47;;;;;;;10.19;100.00;99725.44;7391033;19;20467;-41
2023/03/24 10:19:19;;;;;;;2.30;1.00;;;;;;;10.19;100.00;99727.13;7394176;19;20447;-41
2023/03/24 10:21:55;;;;;;;5.93;1.13;;;;;;;10.16;100.00;99733.13;7390365;19;20877;-42
2023/03/24 10:24:28;;;;;;;7.93;2.27;;;;;;;10.28;100.00;99729.97;7395236;19;20431;-41
2023/03/24 10:27:02;;;;;;;7.13;1.53;;;;;;;10.27;100.00;99728.25;7388125;19;20439;-44
2023/03/24 10:29:33;;;;;;;7.30;1.20;;;;;;;10.31;100.00;99734.34;7393705;19;20451;-45
2023/03/24 10:32:07;;;;;;;6.47;1.57;;;;;;;10.37;100.00;99743.09;7393391;19;20447;-48
2023/03/24 10:34:41;;;;;;;7.97;1.60;;;;;;;10.50;100.00;99734.03;7389687;19;20482;-41
2023/03/24 10:37:12;;;;;;;7.30;1.40;;;;;;;10.57;100.00;99735.06;7393725;19;20399;-42
2023/03/24 10:39:42;;;;;;;6.43;1.20;;;;;;;10.65;100.00;99738.69;7385327;19;20450;-42
2023/03/24 10:42:17;;;;;;;8.57;1.50;;;;;;;10.85;100.00;99735.75;7391761;19;20435;-45
2023/03/24 10:44:48;;;;;;;7.43;1.00;;;;;;;10.79;100.00;99736.47;7391129;19;20414;-43
2023/03/24 10:47:21;;;;;;;4.03;1.20;;;;;;;10.62;100.00;99750.66;7390984;19;20412;-41
2023/03/24 10:49:59;;;;;;;7.10;1.40;;;;;;;10.53;100.00;99751.28;7385458;19;20825;-40
2023/03/24 10:52:44;;;;;;;15.30;2.20;;;;;;;10.69;100.00;99749.97;7393243;19;20406;-48
2023/03/24 10:55:18;;;;;;;8.77;1.63;;;;;;;10.67;100.00;99751.66;7388852;19;20417;-40
2023/03/24 10:57:50;;;;;;;8.23;1.50;;;;;;;10.70;100.00;99766.31;7390351;19;20413;-44
2023/03/24 11:00:25;;;;;;;10.70;1.30;;;;;;;10.67;100.00;99767.97;7389155;19;20411;-42
2023/03/24 11:02:58;;;;;;;6.50;0.87;;;;;;;10.66;100.00;99781.72;7398062;19;20421;-40
2023/03/24 11:05:34;;;;;;;7.73;1.43;;;;;;;10.59;100.00;99769.50;7396427;19;20478;-43
2023/03/24 11:08:16;;;;;;;4.00;0.70;;;;;;;10.64;100.00;99773.06;7398970;19;20441;-42
2023/03/24 11:10:46;;;;;;;5.43;0.70;;;;;;;10.71;100.00;99776.66;7393986;19;20776;-40
2023/03/24 11:13:20;;;;;;;4.07;1.20;;;;;;;11.13;100.00;99798.34;7397748;19;20947;-41
2023/03/24 11:15:55;;;;;;;5.67;0.87;;;;;;;11.05;100.00;99789.53;7394730;19;20446;-41
2023/03/24 11:18:25;;;;;;;9.03;1.07;;;;;;;11.16;100.00;99803.59;7397889;19;20835;-42
2023/03/24 11:21:02;;;;;;;3.80;0.97;;;;;;;11.37;100.00;99802.34;7393795;19;20434;-41
2023/03/24 11:23:34;;;;;;;9.87;1.50;;;;;;;11.08;100.00;99815.44;7398156;19;20424;-45
2023/03/24 11:26:07;;;;;;;4.07;1.37;;;;;;;10.87;100.00;99824.38;7395091;19;20447;-41
2023/03/24 11:28:40;;;;;;;8.40;1.20;;;;;;;10.69;100.00;99822.19;7395675;19;20461;-42
2023/03/24 11:31:17;;;;;;;6.80;1.33;;;;;;;10.80;100.00;99819.91;7394367;19;20439;-41
2023/03/24 11:33:53;;;;;;;12.40;2.40;;;;;;;11.20;100.00;99808.00;7395591;19;20427;-42
2023/03/24 11:36:48;;;;;;;2.90;1.07;;;;;;;11.36;100.00;99821.25;7394085;19;20434;-40
2023/03/24 11:39:20;;;;;;;7.90;1.50;;;;;;;11.47;100.00;99814.66;7397472;19;20458;-41
2023/03/24 11:42:15;;;;;;;8.63;1.80;;;;;;;11.48;100.00;99828.41;7393367;19;20794;-42
2023/03/24 11:44:54;;;;;;;9.97;1.90;;;;;;;11.47;100.00;99840.47;7394216;19;20798;-41
2023/03/24 11:47:26;;;;;;;5.07;1.00;;;;;;;11.78;100.00;99829.94;7397814;19;20383;-41
2023/03/24 11:50:03;;;;;;;7.57;1.00;;;;;;;11.78;100.00;99839.44;7392915;19;21256;-42
2023/03/24 11:52:38;;;;;;;9.70;1.47;;;;;;;11.90;100.00;99829.38;7399560;19;20408;-42
2023/03/24 11:55:15;;;;;;;18.60;4.90;;;;;;;11.97;100.00;99833.81;7393763;19;20422;-41
2023/03/24 11:57:51;;;;;;;7.57;1.50;;;;;;;12.07;100.00;99828.88;7396343;19;20418;-42